createdAt,value
2024-03-05T00:01:20.629Z,99.99
2024-03-05T00:04:40.841Z,99.99
2024-03-05T00:06:50.908Z,99.99
2024-03-05T00:11:21.397Z,99.99
2024-03-05T00:13:31.385Z,99.99
2024-03-05T00:15:41.442Z,99.99
2024-03-05T00:19:01.653Z,99.99
2024-03-05T00:22:21.788Z,99.99
2024-03-05T00:24:31.865Z,99.99
2024-03-05T00:27:52.052Z,99.99
2024-03-05T00:30:02.152Z,99.99
2024-03-05T00:32:12.313Z,99.99
2024-03-05T00:34:22.471Z,99.99
2024-03-05T00:37:42.605Z,99.99
2024-03-05T00:39:52.630Z,99.99
2024-03-05T00:42:02.739Z,99.99
2024-03-05T00:44:12.866Z,99.99
2024-03-05T00:46:22.973Z,99.99
2024-03-05T00:48:33.069Z,99.99
2024-03-05T00:51:53.222Z,99.99
2024-03-05T00:54:03.328Z,99.99
2024-03-05T00:57:23.506Z,99.99
2024-03-05T01:00:43.668Z,99.99
2024-03-05T01:04:03.857Z,99.99
2024-03-05T01:07:24.093Z,99.99
2024-03-05T01:09:34.159Z,99.99
2024-03-05T01:11:44.282Z,99.99
2024-03-05T01:15:04.404Z,99.99
2024-03-05T01:17:14.505Z,99.99
2024-03-05T01:20:34.712Z,99.99
2024-03-05T01:22:44.933Z,99.99
2024-03-05T01:24:54.938Z,99.99
2024-03-05T01:27:05.074Z,99.99
2024-03-05T01:29:15.116Z,99.99
2024-03-05T01:31:25.229Z,99.99
2024-03-05T01:33:35.306Z,99.99
2024-03-05T01:38:05.642Z,99.99
2024-03-05T01:41:25.810Z,99.99
2024-03-05T01:43:35.954Z,99.99
2024-03-05T01:45:46.044Z,99.99
2024-03-05T01:47:56.174Z,99.99
2024-03-05T01:51:16.325Z,99.99
2024-03-05T01:53:26.386Z,99.99
2024-03-05T01:55:36.470Z,99.99
2024-03-05T01:58:56.741Z,99.99
2024-03-05T02:01:06.835Z,99.99
2024-03-05T02:05:37.089Z,99.99
2024-03-05T02:07:47.163Z,99.99
2024-03-05T02:09:57.185Z,99.99
2024-03-05T02:12:07.346Z,99.99
2024-03-05T02:15:27.634Z,99.99
2024-03-05T02:17:37.792Z,99.99
2024-03-05T02:19:47.797Z,99.99
2024-03-05T02:21:57.945Z,99.99
2024-03-05T02:24:08.042Z,99.99
2024-03-05T02:26:18.037Z,99.99
2024-03-05T02:29:38.202Z,99.99
2024-03-05T02:31:48.442Z,99.99
2024-03-05T02:33:58.397Z,99.99
2024-03-05T02:36:08.467Z,99.99
2024-03-05T02:39:28.772Z,99.99
2024-03-05T02:41:38.786Z,99.99
2024-03-05T02:43:49.038Z,99.99
2024-03-05T02:45:59.942Z,99.99
2024-03-05T02:48:10.094Z,99.99
2024-03-05T02:50:20.108Z,99.99
2024-03-05T02:54:50.436Z,99.99
2024-03-05T02:57:00.535Z,99.99
2024-03-05T02:59:11.614Z,99.99
2024-03-05T03:01:20.739Z,99.99
2024-03-05T03:03:30.792Z,99.99
2024-03-05T03:05:40.856Z,99.99
2024-03-05T03:09:01.070Z,99.99
2024-03-05T03:11:11.240Z,99.99
2024-03-05T03:13:21.312Z,99.99
2024-03-05T03:15:31.314Z,99.99
2024-03-05T03:17:41.395Z,99.99
2024-03-05T03:19:51.543Z,99.99
2024-03-05T03:22:01.585Z,99.99
2024-03-05T03:25:21.974Z,99.99
2024-03-05T03:29:52.121Z,99.99
2024-03-05T03:32:02.259Z,99.99
2024-03-05T03:35:22.487Z,99.99
2024-03-05T03:37:32.509Z,99.99
2024-03-05T03:39:42.594Z,99.99
2024-03-05T03:41:52.771Z,99.99
2024-03-05T03:45:13.948Z,99.99
2024-03-05T03:48:34.037Z,99.99
2024-03-05T03:50:44.099Z,99.99
2024-03-05T03:52:54.244Z,99.99
2024-03-05T03:55:04.318Z,99.99
2024-03-05T03:57:14.386Z,99.99
2024-03-05T03:59:24.492Z,99.99
2024-03-05T04:01:34.577Z,99.99
2024-03-05T04:03:44.694Z,99.99
2024-03-05T04:05:54.811Z,99.99
2024-03-05T04:10:25.102Z,99.99
2024-03-05T04:14:56.332Z,99.99
2024-03-05T04:17:06.442Z,99.99
2024-03-05T04:19:16.625Z,99.99
2024-03-05T04:21:26.614Z,99.99
2024-03-05T04:23:36.725Z,99.99
2024-03-05T04:25:46.915Z,99.99
2024-03-05T04:27:56.929Z,99.99
2024-03-05T04:31:18.450Z,99.99
2024-03-05T04:34:37.387Z,99.99
2024-03-05T04:36:47.372Z,99.99
2024-03-05T04:38:57.482Z,99.99
2024-03-05T04:41:07.639Z,99.99
2024-03-05T04:43:17.684Z,99.99
2024-03-05T04:47:48.046Z,99.99
2024-03-05T04:49:58.130Z,99.99
2024-03-05T04:52:08.094Z,99.99
2024-03-05T04:54:18.233Z,99.99
2024-03-05T04:56:28.285Z,99.99
2024-03-05T04:58:38.409Z,99.99
2024-03-05T05:00:48.536Z,99.99
2024-03-05T05:02:58.652Z,99.99
2024-03-05T05:05:08.755Z,99.99
2024-03-05T05:08:29.813Z,99.99
2024-03-05T05:10:39.947Z,99.99
2024-03-05T05:12:50.031Z,99.99
2024-03-05T05:15:00.147Z,99.99
2024-03-05T05:17:11.217Z,99.99
2024-03-05T05:19:21.429Z,99.99
2024-03-05T05:21:31.408Z,99.99
2024-03-05T05:23:41.499Z,99.99
2024-03-05T05:25:51.621Z,99.99
2024-03-05T05:29:17.546Z,99.99
2024-03-05T05:31:23.209Z,99.99
2024-03-05T05:33:33.025Z,99.99
2024-03-05T05:35:43.101Z,99.99
2024-03-05T05:37:53.176Z,99.99
2024-03-05T05:40:03.273Z,99.99
2024-03-05T05:42:13.323Z,99.99
2024-03-05T05:46:43.666Z,99.99
2024-03-05T05:50:03.835Z,99.99
2024-03-05T05:52:13.936Z,99.99
2024-03-05T05:54:23.970Z,99.99
2024-03-05T05:58:54.298Z,99.99
2024-03-05T06:01:04.943Z,99.99
2024-03-05T06:03:14.938Z,99.99
2024-03-05T06:05:24.521Z,99.99
2024-03-05T06:07:34.659Z,99.99
2024-03-05T06:09:44.707Z,99.99
2024-03-05T06:11:55.613Z,99.99
2024-03-05T06:14:05.943Z,99.99
2024-03-05T06:16:15.000Z,99.99
2024-03-05T06:18:25.055Z,99.99
2024-03-05T06:21:45.242Z,99.99
2024-03-05T06:25:05.476Z,99.99
2024-03-05T06:27:15.556Z,99.99
2024-03-05T06:29:25.659Z,99.99
2024-03-05T06:31:35.865Z,99.99
2024-03-05T06:33:46.005Z,99.99
2024-03-05T06:35:55.948Z,99.99
2024-03-05T06:38:06.017Z,99.99
2024-03-05T06:42:36.340Z,99.99
2024-03-05T06:44:46.436Z,99.99
2024-03-05T06:46:56.593Z,99.99
2024-03-05T06:49:06.700Z,99.99
2024-03-05T06:51:16.821Z,99.99
2024-03-05T06:53:26.886Z,99.99
2024-03-05T06:55:36.996Z,99.99
2024-03-05T06:57:47.084Z,99.99
2024-03-05T06:59:57.176Z,99.99
2024-03-05T07:03:17.341Z,99.99
2024-03-05T07:06:38.581Z,99.99
2024-03-05T07:08:48.696Z,99.99
2024-03-05T07:12:08.895Z,99.99
2024-03-05T07:15:30.041Z,99.99
2024-03-05T07:17:40.214Z,99.99
2024-03-05T07:19:50.236Z,99.99
2024-03-05T07:22:00.381Z,99.99
2024-03-05T07:24:10.484Z,99.99
2024-03-05T07:26:20.722Z,99.99
2024-03-05T07:28:30.667Z,99.99
2024-03-05T07:30:40.744Z,99.99
2024-03-05T07:32:52.903Z,99.99
2024-03-05T07:35:01.025Z,99.99
2024-03-05T07:37:11.078Z,99.99
2024-03-05T07:40:31.499Z,99.99
2024-03-05T07:43:52.534Z,99.99
2024-03-05T07:48:22.776Z,99.99
2024-03-05T07:50:32.877Z,99.99
2024-03-05T07:53:53.100Z,99.99
2024-03-05T07:56:03.284Z,99.99
2024-03-05T07:58:13.293Z,99.99
2024-03-05T08:01:33.520Z,99.99
2024-03-05T08:03:43.568Z,99.99
2024-03-05T08:05:53.697Z,99.99
2024-03-05T08:08:04.108Z,99.99
2024-03-05T08:10:13.830Z,99.99
2024-03-05T08:12:23.915Z,99.99
2024-03-05T08:14:34.091Z,99.99
2024-03-05T08:16:44.193Z,99.99
2024-03-05T08:18:54.245Z,99.99
2024-03-05T08:21:04.328Z,99.99
2024-03-05T08:23:14.414Z,99.99
2024-03-05T08:26:34.612Z,99.77
2024-03-05T08:29:54.808Z,99.99
2024-03-05T08:32:04.926Z,99.99
2024-03-05T08:34:15.026Z,99.99
2024-03-05T08:36:25.164Z,99.99
2024-03-05T08:38:35.279Z,99.99
2024-03-05T08:40:45.382Z,99.99
2024-03-05T08:44:05.526Z,96.77
2024-03-05T08:46:15.579Z,97.39
2024-03-05T08:48:25.701Z,98.84
2024-03-05T08:50:35.808Z,98.28
2024-03-05T08:52:46.021Z,97.45
2024-03-05T08:54:55.966Z,97.04
2024-03-05T08:59:26.329Z,96.26
2024-03-05T09:01:36.492Z,97.86
2024-03-05T09:04:56.729Z,98.58
2024-03-05T09:07:06.745Z,97.86
2024-03-05T09:09:16.864Z,97.25
2024-03-05T09:11:26.986Z,96.42
2024-03-05T09:14:47.427Z,95.45
2024-03-05T09:16:57.617Z,96.89
2024-03-05T09:19:07.715Z,94.42
2024-03-05T09:21:18.222Z,95.86
2024-03-05T09:23:27.911Z,95.14
2024-03-05T09:25:37.993Z,93.49
2024-03-05T09:28:58.246Z,94.31
2024-03-05T09:31:08.212Z,95.14
2024-03-05T09:33:18.369Z,94.57
2024-03-05T09:35:28.411Z,94.72
2024-03-05T09:37:38.752Z,95.55
2024-03-05T09:39:48.613Z,95.03
2024-03-05T09:41:58.721Z,96.02
2024-03-05T09:44:08.980Z,94.47
2024-03-05T09:46:18.945Z,92.61
2024-03-05T09:48:28.969Z,91.79
2024-03-05T09:50:39.088Z,92.72
2024-03-05T09:53:59.289Z,89.22
2024-03-05T09:56:09.543Z,91.28
2024-03-05T09:58:19.499Z,92.00
2024-03-05T10:00:29.570Z,87.93
2024-03-05T10:03:49.749Z,89.28
2024-03-05T10:06:00.671Z,90.82
2024-03-05T10:08:10.026Z,90.57
2024-03-05T10:10:20.488Z,88.04
2024-03-05T10:12:30.205Z,89.44
2024-03-05T10:14:40.268Z,88.65
2024-03-05T10:16:50.393Z,89.13
2024-03-05T10:20:10.586Z,86.29
2024-03-05T10:24:40.875Z,88.04
2024-03-05T10:26:50.983Z,87.21
2024-03-05T10:31:21.233Z,86.04
2024-03-05T10:33:31.328Z,84.80
2024-03-05T10:35:41.740Z,85.63
2024-03-05T10:37:51.548Z,84.49
2024-03-05T10:40:01.582Z,83.09
2024-03-05T10:43:21.840Z,83.29
2024-03-05T10:45:31.905Z,83.29
2024-03-05T10:48:52.211Z,85.57
2024-03-05T10:52:12.316Z,84.70
2024-03-05T10:54:22.451Z,83.19
2024-03-05T10:56:37.331Z,85.01
2024-03-05T10:59:53.876Z,83.05
2024-03-05T11:02:04.053Z,83.87
2024-03-05T11:04:14.074Z,84.29
2024-03-05T11:06:24.155Z,82.74
2024-03-05T11:08:34.280Z,83.73
2024-03-05T11:10:44.410Z,82.29
2024-03-05T11:12:54.461Z,82.09
2024-03-05T11:15:04.543Z,83.01
2024-03-05T11:17:14.706Z,82.09
2024-03-05T11:19:25.066Z,81.67
2024-03-05T11:21:35.159Z,82.29
2024-03-05T11:23:45.228Z,82.97
2024-03-05T11:25:55.388Z,81.63
2024-03-05T11:28:05.463Z,80.81
2024-03-05T11:30:16.531Z,81.33
2024-03-05T11:32:26.680Z,80.61
2024-03-05T11:34:36.820Z,81.53
2024-03-05T11:36:46.841Z,81.95
2024-03-05T11:40:08.008Z,80.98
2024-03-05T11:42:17.015Z,0.00
2024-03-05T11:44:27.098Z,80.88
2024-03-05T11:46:37.216Z,80.22
2024-03-05T11:48:47.326Z,79.50
2024-03-05T11:52:07.515Z,80.57
2024-03-05T11:54:19.362Z,80.26
2024-03-05T11:56:27.518Z,80.57
2024-03-05T11:59:47.675Z,80.67
2024-03-05T12:01:57.787Z,80.02
2024-03-05T12:04:07.860Z,78.61
2024-03-05T12:06:19.085Z,80.84
2024-03-05T12:08:28.076Z,79.30
2024-03-05T12:11:48.125Z,79.91
2024-03-05T12:13:58.457Z,78.64
2024-03-05T12:16:08.397Z,79.36
2024-03-05T12:19:28.654Z,78.85
2024-03-05T12:22:48.916Z,79.47
2024-03-05T12:24:58.875Z,78.27
2024-03-05T12:28:18.922Z,0.00
2024-03-05T12:30:28.988Z,77.31
2024-03-05T12:32:39.093Z,76.48
2024-03-05T12:34:50.183Z,78.33
2024-03-05T12:37:00.241Z,77.89
2024-03-05T12:39:10.358Z,76.00
2024-03-05T12:41:20.495Z,76.31
2024-03-05T12:44:40.701Z,75.59
2024-03-05T12:46:50.933Z,75.08
2024-03-05T12:49:00.977Z,76.17
2024-03-05T12:53:31.265Z,74.22
2024-03-05T12:56:51.563Z,73.13
2024-03-05T12:59:01.766Z,75.66
2024-03-05T13:01:11.754Z,74.43
2024-03-05T13:03:21.782Z,74.12
2024-03-05T13:05:31.915Z,75.04
2024-03-05T13:07:41.947Z,74.70
2024-03-05T13:09:52.041Z,72.65
2024-03-05T13:13:12.056Z,74.80
2024-03-05T13:15:22.154Z,74.49
2024-03-05T13:17:32.334Z,74.08
2024-03-05T13:20:55.933Z,73.40
2024-03-05T13:23:02.776Z,73.68
2024-03-05T13:26:23.800Z,73.74
2024-03-05T13:28:32.955Z,71.39
2024-03-05T13:30:43.977Z,71.62
2024-03-05T13:32:53.133Z,71.90
2024-03-05T13:35:04.322Z,72.07
2024-03-05T13:37:14.310Z,70.46
2024-03-05T13:39:24.361Z,71.69
2024-03-05T13:41:34.832Z,0.00
2024-03-05T13:43:44.483Z,72.34
2024-03-05T13:45:54.627Z,72.31
2024-03-05T13:49:14.743Z,73.13
2024-03-05T13:51:24.854Z,0.00
2024-03-05T13:54:46.025Z,71.39
2024-03-05T13:59:17.733Z,72.41
2024-03-05T14:01:27.412Z,70.36
2024-03-05T14:04:47.597Z,71.28
2024-03-05T14:06:57.594Z,69.98
2024-03-05T14:11:27.954Z,70.42
2024-03-05T14:13:38.021Z,71.25
2024-03-05T14:19:19.373Z,69.32
2024-03-05T14:22:41.768Z,71.14
2024-03-05T14:24:49.701Z,71.17
2024-03-05T14:28:09.874Z,70.25
2024-03-05T14:30:20.760Z,69.74
2024-03-05T14:32:30.224Z,69.94
2024-03-05T14:34:40.241Z,70.46
2024-03-05T14:36:50.279Z,69.87
2024-03-05T14:39:00.383Z,70.79
2024-03-05T14:41:10.639Z,72.44
2024-03-05T14:43:22.017Z,71.72
2024-03-05T14:45:30.617Z,73.47
2024-03-05T14:48:52.376Z,72.38
2024-03-05T14:52:11.156Z,71.96
2024-03-05T14:54:21.175Z,70.11
2024-03-05T14:56:31.777Z,71.24
2024-03-05T14:58:42.377Z,70.21
2024-03-05T15:00:52.785Z,71.45
2024-03-05T15:03:03.305Z,71.93
2024-03-05T15:05:13.207Z,70.79
2024-03-05T15:07:23.057Z,69.77
2024-03-05T15:09:33.161Z,69.67
2024-03-05T15:11:43.326Z,68.85
2024-03-05T15:13:53.367Z,69.26
2024-03-05T15:16:03.462Z,69.77
2024-03-05T15:20:33.755Z,70.39
2024-03-05T15:26:14.232Z,70.42
2024-03-05T15:28:25.925Z,71.79
2024-03-05T15:31:45.469Z,71.07
2024-03-05T15:33:55.529Z,70.56
2024-03-05T15:37:15.807Z,71.89
2024-03-05T15:39:25.788Z,70.28
2024-03-05T15:41:35.949Z,70.79
2024-03-05T15:43:46.015Z,69.66
2024-03-05T15:45:56.106Z,69.56
2024-03-05T15:48:06.234Z,70.38
2024-03-05T15:50:16.308Z,69.56
2024-03-05T15:52:26.460Z,69.46
2024-03-05T15:55:46.942Z,70.48
2024-03-05T15:57:56.643Z,70.59
2024-03-05T16:00:06.976Z,68.74
2024-03-05T16:02:16.929Z,68.94
2024-03-05T16:04:48.806Z,68.94
2024-03-05T16:06:38.138Z,68.25
2024-03-05T16:09:58.257Z,70.21
2024-03-05T16:12:12.115Z,70.10
2024-03-05T16:14:18.596Z,70.52
2024-03-05T16:17:38.825Z,70.83
2024-03-05T16:19:48.785Z,70.65
2024-03-05T16:21:58.822Z,71.27
2024-03-05T16:24:08.918Z,71.17
2024-03-05T16:27:29.052Z,70.96
2024-03-05T16:29:39.224Z,71.41
2024-03-05T16:31:49.285Z,70.89
2024-03-05T16:33:59.336Z,71.61
2024-03-05T16:37:19.623Z,71.75
2024-03-05T16:39:29.639Z,71.34
2024-03-05T16:42:49.819Z,71.99
2024-03-05T16:44:59.922Z,71.47
2024-03-05T16:47:10.056Z,72.30
2024-03-05T16:49:20.193Z,73.12
2024-03-05T16:51:30.290Z,72.85
2024-03-05T16:53:40.346Z,72.74
2024-03-05T16:55:50.436Z,73.22
2024-03-05T16:58:00.928Z,73.22
2024-03-05T17:00:11.828Z,73.22
2024-03-05T17:02:21.723Z,73.47
2024-03-05T17:05:42.049Z,73.68
2024-03-05T17:09:02.188Z,74.40
2024-03-05T17:11:12.368Z,74.71
2024-03-05T17:13:23.057Z,74.19
2024-03-05T17:15:32.516Z,74.84
2024-03-05T17:18:52.718Z,75.46
2024-03-05T17:21:02.833Z,75.57
2024-03-05T17:24:22.971Z,75.36
2024-03-05T17:26:33.076Z,76.08
2024-03-05T17:28:43.261Z,75.87
2024-03-05T17:30:53.279Z,75.98
2024-03-05T17:33:03.435Z,76.50
2024-03-05T17:35:13.523Z,77.22
2024-03-05T17:38:33.694Z,76.53
2024-03-05T17:40:43.811Z,76.84
2024-03-05T17:42:54.006Z,76.73
2024-03-05T17:46:14.104Z,76.53
2024-03-05T17:48:25.342Z,76.94
2024-03-05T17:50:35.286Z,76.64
2024-03-05T17:52:45.526Z,77.36
2024-03-05T17:54:55.559Z,77.56
2024-03-05T17:57:05.645Z,77.15
2024-03-05T17:59:15.778Z,76.94
2024-03-05T18:01:26.011Z,76.64
2024-03-05T18:03:36.614Z,76.22
2024-03-05T18:05:46.131Z,76.77
2024-03-05T18:09:06.202Z,76.77
2024-03-05T18:11:16.452Z,77.08
2024-03-05T18:13:26.457Z,77.29
2024-03-05T18:15:36.654Z,77.08
2024-03-05T18:17:46.679Z,76.98
2024-03-05T18:19:56.763Z,76.87
2024-03-05T18:22:06.842Z,76.98
2024-03-05T18:24:16.935Z,77.39
2024-03-05T18:26:27.044Z,77.70
2024-03-05T18:28:37.221Z,77.29
2024-03-05T18:30:47.478Z,77.33
2024-03-05T18:34:07.727Z,77.12
2024-03-05T18:36:17.491Z,77.33
2024-03-05T18:38:29.523Z,77.43
2024-03-05T18:40:37.845Z,78.25
2024-03-05T18:42:47.903Z,78.36
2024-03-05T18:44:57.999Z,77.84
2024-03-05T18:47:08.180Z,77.43
2024-03-05T18:49:18.215Z,78.05
2024-03-05T18:52:38.496Z,77.98
2024-03-05T18:54:48.661Z,78.08
2024-03-05T18:56:58.626Z,78.70
2024-03-05T18:59:08.887Z,78.91
2024-03-05T19:03:39.230Z,79.16
2024-03-05T19:07:00.550Z,78.95
2024-03-05T19:09:10.596Z,78.33
2024-03-05T19:11:20.812Z,78.74
2024-03-05T19:13:30.924Z,79.30
2024-03-05T19:15:41.021Z,79.09
2024-03-05T19:17:51.203Z,78.99
2024-03-05T19:20:02.821Z,79.33
2024-03-05T19:22:12.313Z,79.44
2024-03-05T19:24:22.444Z,79.64
2024-03-05T19:27:42.846Z,79.99
2024-03-05T19:32:13.177Z,79.99
2024-03-05T19:34:23.147Z,79.78
2024-03-05T19:37:43.626Z,80.65
2024-03-05T19:40:00.566Z,80.65
2024-03-05T19:49:43.050Z,82.24
2024-03-05T19:51:53.096Z,82.39
2024-03-05T19:54:03.190Z,82.14
2024-03-05T19:56:13.353Z,82.34
2024-03-05T19:59:33.471Z,82.86
2024-03-05T20:01:43.659Z,82.90
2024-03-05T20:03:53.675Z,83.11
2024-03-05T20:09:34.071Z,83.22
2024-03-05T20:11:44.366Z,83.63
2024-03-05T20:13:54.274Z,83.84
2024-03-05T20:16:04.388Z,84.05
2024-03-05T20:19:25.005Z,84.67
2024-03-05T20:21:34.709Z,84.77
2024-03-05T20:23:44.788Z,84.98
2024-03-05T20:25:54.971Z,84.98
2024-03-05T20:28:04.959Z,84.88
2024-03-05T20:30:15.103Z,84.98
2024-03-05T20:32:25.210Z,85.29
2024-03-05T20:35:45.406Z,84.98
2024-03-05T20:37:55.491Z,85.91
2024-03-05T20:40:05.578Z,86.43
2024-03-05T20:42:16.025Z,85.91
2024-03-05T20:44:26.182Z,86.02
2024-03-05T20:46:36.345Z,85.71
2024-03-05T20:48:46.462Z,86.12
2024-03-05T20:50:56.476Z,86.54
2024-03-05T20:55:26.812Z,87.16
2024-03-05T20:57:36.963Z,87.16
2024-03-05T20:59:47.038Z,87.68
2024-03-05T21:01:57.312Z,87.47
2024-03-05T21:04:08.896Z,86.85
2024-03-05T21:08:37.699Z,86.54
2024-03-05T21:11:57.835Z,86.12
2024-03-05T21:15:19.120Z,87.05
2024-03-05T21:18:39.209Z,86.54
2024-03-05T21:21:59.420Z,86.74
2024-03-05T21:25:19.578Z,86.64
2024-03-05T21:27:29.768Z,86.43
2024-03-05T21:29:39.801Z,86.33
2024-03-05T21:31:50.001Z,87.05
2024-03-05T21:35:11.243Z,86.64
2024-03-05T21:37:21.289Z,87.37
2024-03-05T21:39:31.402Z,87.68
2024-03-05T21:41:41.556Z,87.68
2024-03-05T21:43:51.662Z,87.26
2024-03-05T21:46:01.757Z,86.33
2024-03-05T21:48:11.824Z,86.33
2024-03-05T21:50:21.915Z,86.64
2024-03-05T21:52:32.013Z,86.85
2024-03-05T21:55:52.204Z,86.74
2024-03-05T21:58:02.287Z,86.74
2024-03-05T22:00:12.900Z,86.43
2024-03-05T22:02:22.577Z,86.74
2024-03-05T22:04:32.750Z,86.54
2024-03-05T22:06:42.782Z,85.91
2024-03-05T22:08:52.958Z,87.16
2024-03-05T22:11:03.006Z,86.74
2024-03-05T22:13:13.120Z,87.05
2024-03-05T22:15:23.568Z,87.05
2024-03-05T22:17:33.727Z,86.74
2024-03-05T22:20:53.785Z,87.26
2024-03-05T22:23:03.978Z,87.16
2024-03-05T22:25:13.974Z,87.37
2024-03-05T22:28:35.212Z,87.78
2024-03-05T22:30:45.260Z,87.30
2024-03-05T22:32:55.453Z,87.51
2024-03-05T22:35:05.686Z,88.13
2024-03-05T22:38:25.744Z,88.44
2024-03-05T22:40:35.799Z,88.44
2024-03-05T22:42:45.851Z,88.65
2024-03-05T22:46:06.681Z,89.37
2024-03-05T22:48:16.233Z,89.37
2024-03-05T22:50:26.360Z,89.89
2024-03-05T22:52:36.402Z,90.31
2024-03-05T22:54:46.449Z,89.89
2024-03-05T22:56:56.554Z,90.00
2024-03-05T22:59:06.707Z,90.20
2024-03-05T23:01:16.797Z,90.31
2024-03-05T23:03:26.854Z,90.72
2024-03-05T23:05:36.938Z,90.41
2024-03-05T23:07:47.042Z,90.62
2024-03-05T23:09:57.063Z,91.03
2024-03-05T23:12:07.237Z,91.24
2024-03-05T23:15:27.334Z,91.24
2024-03-05T23:17:37.496Z,91.86
2024-03-05T23:19:47.548Z,91.35
2024-03-05T23:21:57.666Z,91.55
2024-03-05T23:24:07.786Z,91.35
2024-03-05T23:26:17.973Z,91.76
2024-03-05T23:28:28.066Z,92.18
2024-03-05T23:30:38.078Z,92.38
2024-03-05T23:33:58.290Z,92.59
2024-03-05T23:36:08.472Z,93.12
2024-03-05T23:38:19.524Z,92.94
2024-03-05T23:41:39.771Z,93.26
2024-03-05T23:43:49.885Z,93.26
2024-03-05T23:47:10.073Z,93.37
2024-03-05T23:51:40.335Z,92.74
2024-03-05T23:53:52.396Z,92.84
2024-03-05T23:56:00.614Z,93.37
2024-03-05T23:58:10.675Z,93.16
